createdAt,value
2022-10-29T00:00:42.539Z,80.39
2022-10-29T00:05:45.521Z,82.77
2022-10-29T00:10:49.877Z,84.29
2022-10-29T00:15:52.696Z,82.18
2022-10-29T00:21:01.940Z,82.12
2022-10-29T00:26:07.923Z,81.56
2022-10-29T00:31:16.442Z,83.44
2022-10-29T00:36:22.111Z,88.25
2022-10-29T00:41:30.376Z,92.41
2022-10-29T00:51:46.567Z,84.97
2022-10-29T00:56:53.816Z,85.01
2022-10-29T01:01:57.070Z,90.09
2022-10-29T01:07:00.251Z,89.31
2022-10-29T01:12:20.102Z,90.86
2022-10-29T01:17:31.654Z,92.33
2022-10-29T01:22:41.058Z,99.91
2022-10-29T01:28:04.057Z,100.00
2022-10-29T01:33:18.901Z,100.00
2022-10-29T01:38:33.440Z,100.00
2022-10-29T01:43:39.215Z,98.22
2022-10-29T01:48:46.549Z,100.00
2022-10-29T01:53:50.687Z,100.00
2022-10-29T01:58:59.495Z,100.00
2022-10-29T02:04:23.239Z,98.10
2022-10-29T02:09:34.118Z,100.00
2022-10-29T02:14:42.558Z,100.00
2022-10-29T02:19:47.087Z,100.00
2022-10-29T02:24:50.496Z,97.20
2022-10-29T02:29:53.648Z,100.00
2022-10-29T02:34:58.417Z,100.00
2022-10-29T02:40:04.892Z,100.00
2022-10-29T02:45:08.606Z,100.00
2022-10-29T02:50:12.887Z,100.00
2022-10-29T02:55:15.815Z,100.00
2022-10-29T03:00:19.484Z,100.00
2022-10-29T03:05:26.251Z,100.00
2022-10-29T03:10:29.332Z,100.00
2022-10-29T03:15:34.918Z,100.00
2022-10-29T03:20:41.316Z,100.00
2022-10-29T03:25:44.277Z,100.00
2022-10-29T03:30:47.404Z,100.00
2022-10-29T03:35:51.884Z,97.08
2022-10-29T03:40:57.415Z,96.74
2022-10-29T03:46:01.895Z,95.58
2022-10-29T03:51:08.921Z,100.00
2022-10-29T03:56:12.349Z,100.00
2022-10-29T04:01:15.163Z,100.00
2022-10-29T04:06:19.590Z,100.00
2022-10-29T04:11:24.948Z,100.00
2022-10-29T04:16:28.030Z,100.00
2022-10-29T04:32:21.063Z,100.00
2022-10-29T04:37:25.435Z,100.00
2022-10-29T04:42:28.020Z,100.00
2022-10-29T04:47:32.689Z,98.82
2022-10-29T04:52:36.783Z,97.69
2022-10-29T04:57:39.803Z,98.28
2022-10-29T05:02:44.823Z,98.95
2022-10-29T05:08:06.020Z,100.00
2022-10-29T05:13:12.131Z,100.00
2022-10-29T05:18:17.425Z,100.00
2022-10-29T05:23:22.065Z,100.00
2022-10-29T05:28:25.884Z,100.00
2022-10-29T05:33:28.644Z,99.74
2022-10-29T05:38:34.213Z,97.32
2022-10-29T05:43:37.420Z,100.00
2022-10-29T05:48:40.162Z,98.49
2022-10-29T05:53:44.372Z,96.09
2022-10-29T05:58:50.175Z,99.07
2022-10-29T06:08:57.272Z,100.00
2022-10-29T06:14:00.179Z,100.00
2022-10-29T06:19:03.259Z,100.00
2022-10-29T06:24:08.712Z,99.75
2022-10-29T06:29:11.490Z,100.00
2022-10-29T06:34:14.952Z,98.42
2022-10-29T06:39:19.404Z,100.00
2022-10-29T06:44:39.894Z,100.00
2022-10-29T06:49:42.627Z,100.00
2022-10-29T06:54:47.148Z,96.58
2022-10-29T06:59:51.502Z,95.67
2022-10-29T07:04:54.356Z,93.67
2022-10-29T07:09:59.352Z,97.98
2022-10-29T07:15:08.284Z,97.24
2022-10-29T07:20:19.191Z,94.31
2022-10-29T07:25:23.459Z,92.87
2022-10-29T07:30:26.313Z,96.57
2022-10-29T07:35:32.132Z,97.67
2022-10-29T07:40:56.742Z,91.95
2022-10-29T07:46:01.965Z,90.91
2022-10-29T07:51:04.953Z,91.79
2022-10-29T07:56:12.968Z,88.09
2022-10-29T08:01:42.040Z,86.29
2022-10-29T08:06:57.155Z,86.30
2022-10-29T08:12:48.644Z,85.47
2022-10-29T08:17:56.156Z,86.15
2022-10-29T08:23:03.860Z,90.24
2022-10-29T08:28:07.902Z,89.34
2022-10-29T08:33:16.068Z,84.99
2022-10-29T08:38:18.885Z,84.86
2022-10-29T08:43:34.531Z,82.73
2022-10-29T08:48:46.662Z,83.30
2022-10-29T08:54:25.107Z,81.01
2022-10-29T08:59:27.507Z,79.28
2022-10-29T09:04:38.447Z,79.22
2022-10-29T09:09:48.698Z,78.62
2022-10-29T09:15:10.651Z,77.20
2022-10-29T09:20:31.930Z,74.79
2022-10-29T09:25:40.252Z,73.98
2022-10-29T09:30:51.133Z,74.08
2022-10-29T09:35:57.405Z,73.30
2022-10-29T09:41:04.603Z,72.51
2022-10-29T09:46:13.362Z,72.52
2022-10-29T09:51:29.932Z,71.83
2022-10-29T09:56:33.054Z,70.45
2022-10-29T10:01:36.203Z,71.41
2022-10-29T10:07:08.804Z,71.16
2022-10-29T10:12:31.118Z,72.37
2022-10-29T10:18:01.897Z,72.24
2022-10-29T10:23:49.421Z,69.73
2022-10-29T10:29:05.465Z,63.53
2022-10-29T10:34:18.473Z,62.49
2022-10-29T10:39:38.873Z,65.26
2022-10-29T10:44:57.214Z,65.18
2022-10-29T10:50:15.951Z,64.91
2022-10-29T10:55:28.942Z,65.84
2022-10-29T11:07:01.691Z,64.30
2022-10-29T11:12:18.863Z,64.78
2022-10-29T11:17:33.518Z,59.15
2022-10-29T11:23:08.250Z,58.54
2022-10-29T11:28:24.890Z,60.55
2022-10-29T11:33:47.556Z,61.53
2022-10-29T11:38:55.429Z,60.51
2022-10-29T11:43:59.641Z,61.54
2022-10-29T11:49:21.554Z,63.30
2022-10-29T11:54:38.793Z,61.09
2022-10-29T12:00:00.970Z,58.87
2022-10-29T12:05:14.366Z,58.54
2022-10-29T12:10:38.732Z,54.63
2022-10-29T12:15:56.624Z,52.53
2022-10-29T12:21:07.782Z,52.49
2022-10-29T12:26:16.543Z,52.28
2022-10-29T12:31:27.763Z,54.95
2022-10-29T12:36:37.974Z,55.45
2022-10-29T12:42:23.279Z,54.19
2022-10-29T12:47:46.736Z,53.76
2022-10-29T12:52:54.356Z,53.77
2022-10-29T12:57:57.718Z,53.10
2022-10-29T13:03:02.310Z,54.31
2022-10-29T13:08:35.465Z,52.07
2022-10-29T13:13:48.593Z,53.96
2022-10-29T13:19:18.332Z,51.47
2022-10-29T13:24:22.101Z,53.60
2022-10-29T13:29:47.238Z,53.22
2022-10-29T13:34:57.228Z,56.45
2022-10-29T13:40:40.194Z,56.52
2022-10-29T13:45:51.726Z,59.52
2022-10-29T13:51:03.969Z,59.55
2022-10-29T13:56:10.824Z,59.32
2022-10-29T14:01:27.867Z,57.46
2022-10-29T14:06:37.616Z,55.95
2022-10-29T14:11:43.777Z,54.86
2022-10-29T14:16:46.761Z,57.25
2022-10-29T14:21:52.132Z,61.64
2022-10-29T14:27:10.407Z,61.83
2022-10-29T14:32:15.654Z,62.91
2022-10-29T14:37:29.721Z,65.40
2022-10-29T14:42:35.430Z,67.61
2022-10-29T14:47:40.602Z,71.38
2022-10-29T14:52:52.573Z,72.27
2022-10-29T14:58:04.421Z,73.67
2022-10-29T15:03:08.531Z,75.28
2022-10-29T15:08:19.166Z,75.22
2022-10-29T15:13:27.692Z,75.20
2022-10-29T15:18:45.184Z,77.28
2022-10-29T15:30:31.329Z,77.20
2022-10-29T15:35:41.241Z,82.75
2022-10-29T15:41:08.214Z,89.85
2022-10-29T15:46:16.159Z,91.55
2022-10-29T15:51:29.118Z,95.55
2022-10-29T15:56:53.432Z,98.26
2022-10-29T16:01:56.099Z,99.29
2022-10-29T16:06:58.831Z,93.63
2022-10-29T16:12:02.955Z,100.00
2022-10-29T16:17:05.818Z,100.00
2022-10-29T16:22:17.910Z,97.00
2022-10-29T16:27:29.736Z,100.00
2022-10-29T16:32:34.923Z,100.00
2022-10-29T16:37:37.630Z,98.11
2022-10-29T16:42:42.543Z,97.80
2022-10-29T16:47:45.441Z,97.70
2022-10-29T16:52:48.404Z,100.00
2022-10-29T16:57:55.460Z,100.00
2022-10-29T17:03:03.373Z,100.00
2022-10-29T17:08:11.208Z,100.00
2022-10-29T17:13:15.370Z,100.00
2022-10-29T17:18:17.906Z,96.53
2022-10-29T17:23:20.585Z,92.82
2022-10-29T17:28:29.148Z,96.47
2022-10-29T17:33:31.832Z,94.13
2022-10-29T17:38:34.864Z,100.00
2022-10-29T17:43:39.037Z,100.00
2022-10-29T17:48:42.196Z,100.00
2022-10-29T17:53:44.969Z,100.00
2022-10-29T17:58:49.226Z,100.00
2022-10-29T18:03:52.372Z,100.00
2022-10-29T18:08:55.153Z,100.00
2022-10-29T18:13:59.669Z,98.18
2022-10-29T18:19:03.773Z,95.36
2022-10-29T18:24:06.815Z,95.83
2022-10-29T18:29:12.830Z,95.49
2022-10-29T18:34:19.996Z,100.00
2022-10-29T18:39:22.799Z,100.00
2022-10-29T18:44:27.076Z,100.00
2022-10-29T18:49:29.605Z,96.14
2022-10-29T18:54:32.485Z,96.54
2022-10-29T18:59:36.773Z,93.89
2022-10-29T19:04:39.523Z,93.15
2022-10-29T19:09:42.314Z,100.00
2022-10-29T19:14:46.679Z,100.00
2022-10-29T19:19:49.532Z,100.00
2022-10-29T19:24:57.553Z,100.00
2022-10-29T19:30:02.372Z,100.00
2022-10-29T19:35:05.587Z,100.00
2022-10-29T19:40:11.659Z,99.58
2022-10-29T19:45:16.103Z,100.00
2022-10-29T19:50:18.984Z,97.78
2022-10-29T19:55:21.933Z,96.49
2022-10-29T20:00:26.314Z,100.00
2022-10-29T20:05:29.154Z,97.66
2022-10-29T20:10:35.316Z,97.40
2022-10-29T20:15:41.727Z,100.00
2022-10-29T20:20:44.683Z,100.00
2022-10-29T20:25:47.449Z,100.00
2022-10-29T20:30:51.555Z,100.00
2022-10-29T20:35:54.432Z,100.00
2022-10-29T20:40:57.341Z,100.00
2022-10-29T20:46:02.229Z,100.00
2022-10-29T20:51:05.378Z,100.00
2022-10-29T20:56:11.568Z,100.00
2022-10-29T21:01:20.701Z,100.00
2022-10-29T21:06:23.587Z,100.00
2022-10-29T21:11:26.448Z,100.00
2022-10-29T21:16:34.575Z,100.00
2022-10-29T21:21:38.118Z,100.00
2022-10-29T21:26:41.036Z,100.00
2022-10-29T21:31:47.950Z,100.00
2022-10-29T21:36:50.983Z,100.00
2022-10-29T21:42:00.891Z,100.00
2022-10-29T21:47:05.465Z,100.00
2022-10-29T21:52:08.206Z,100.00
2022-10-29T21:57:11.212Z,100.00
2022-10-29T22:02:15.580Z,100.00
2022-10-29T22:07:18.221Z,100.00
2022-10-29T22:12:20.959Z,100.00
2022-10-29T22:17:28.314Z,100.00
2022-10-29T22:22:31.185Z,100.00
2022-10-29T22:27:34.015Z,100.00
2022-10-29T22:32:38.433Z,100.00
2022-10-29T22:37:41.411Z,100.00
2022-10-29T22:42:44.431Z,100.00
2022-10-29T22:47:48.522Z,100.00
2022-10-29T22:52:51.241Z,100.00
2022-10-29T22:57:54.088Z,100.00
2022-10-29T23:02:59.971Z,100.00
2022-10-29T23:08:03.029Z,100.00
2022-10-29T23:13:05.831Z,100.00
2022-10-29T23:18:10.564Z,100.00
2022-10-29T23:23:14.520Z,100.00
2022-10-29T23:28:17.373Z,100.00
2022-10-29T23:33:21.849Z,100.00
2022-10-29T23:38:24.705Z,100.00
2022-10-29T23:43:27.673Z,100.00
2022-10-29T23:48:31.853Z,100.00
2022-10-29T23:53:34.522Z,100.00
2022-10-29T23:58:37.145Z,100.00
